Paris, MS (38949)

8:34 AM CST on December 07, 2016 (GMT -0600)
Gooch Creek | | Change Station

Elev 269 ft 34.26 °N, 89.58 °W | Updated 10 seconds ago

Overcast
Overcast
43.6 °F
Feels Like 41 °F
N
5.0
Wind Variable Wind from NNE

Today
High -- | Low -- °F
--% Chance of Precip.
Yesterday
High -- | Low -- °F
Precip. -- in
Pressure 30.17 in
Visibility 10.0 miles
Clouds Mostly Cloudy 2300 ft
Overcast 6000 ft
Windchill 41 °F
Dew Point 40 °F
Humidity 88%
Rainfall 0.00 in
Snow Depth Not available.
6:50 AM 4:47 PM
First Quarter, 53% visible
METAR KUOX 071415Z AUTO 02006KT 10SM BKN023 OVC060 04/02 A3017 RMK AO2
Pressure 30.17 in
Visibility 10.0 miles
Clouds Mostly Cloudy 2300 ft
Overcast 6000 ft
Windchill 41 °F
Dew Point 40 °F
Humidity 88%
Rainfall 0.00 in
Snow Depth Not available.
6:50 AM 4:47 PM
First Quarter, 53% visible
METAR KUOX 071415Z AUTO 02006KT 10SM BKN023 OVC060 04/02 A3017 RMK AO2

10-Day Weather Forecast

Almanac

Astronomy

Dec. 07, 2016 Rise Set
Actual Time
Civil Twilight
Nautical Twilight
Astronomical Twilight
Moon
Length of Visible Light
Length of Day
Tomorrow will be .
, % of the Moon is Illuminated

Today's Extremes

State Highs State Lows

Community

WunderPhotos

Upload Photos

1,956,116 photos uploaded!

WunderBlog® & News

Nearby

Air Quality

  Air Quality AQ Index Pollutant
Not available.

Snow Depth

Station Depth Elevation

Earthquake Activity

City Distance Mag. Time & Date
Minimum magnitude displayed is 2.5.

Coastal Water Temperatures

Place Temperature

Stations

Nearby Weather Stations

Station Location Temp. Windchill Dew Point Humidity Wind Precip. Elev Updated Type
                   

Watches & Warnings

There are currently no watches in effect.